sensor_id;sensor_type;location;lat;lon;timestamp;temperature;humidity
31731;DHT22;18310;55.586;12.286;2022-11-25T00:00:51;11.50;76.70
31731;DHT22;18310;55.586;12.286;2022-11-25T00:03:56;11.60;76.60
31731;DHT22;18310;55.586;12.286;2022-11-25T00:07:00;11.50;76.50
31731;DHT22;18310;55.586;12.286;2022-11-25T00:10:05;11.50;76.40
31731;DHT22;18310;55.586;12.286;2022-11-25T00:13:09;11.50;76.40
31731;DHT22;18310;55.586;12.286;2022-11-25T00:16:13;11.50;76.50
31731;DHT22;18310;55.586;12.286;2022-11-25T00:19:19;11.50;76.60
31731;DHT22;18310;55.586;12.286;2022-11-25T00:22:22;11.50;76.40
31731;DHT22;18310;55.586;12.286;2022-11-25T00:25:25;11.60;76.40
31731;DHT22;18310;55.586;12.286;2022-11-25T00:28:28;11.50;76.40
31731;DHT22;18310;55.586;12.286;2022-11-25T00:31:33;11.60;76.50
31731;DHT22;18310;55.586;12.286;2022-11-25T00:34:39;11.60;76.60
31731;DHT22;18310;55.586;12.286;2022-11-25T00:37:42;11.60;76.90
31731;DHT22;18310;55.586;12.286;2022-11-25T00:40:45;11.60;76.70
31731;DHT22;18310;55.586;12.286;2022-11-25T00:44:09;11.70;76.40
31731;DHT22;18310;55.586;12.286;2022-11-25T00:47:31;11.70;76.20
31731;DHT22;18310;55.586;12.286;2022-11-25T00:50:36;11.70;76.10
31731;DHT22;18310;55.586;12.286;2022-11-25T00:53:39;11.70;76.00
31731;DHT22;18310;55.586;12.286;2022-11-25T00:56:42;11.70;75.90
31731;DHT22;18310;55.586;12.286;2022-11-25T00:59:45;11.70;75.90
31731;DHT22;18310;55.586;12.286;2022-11-25T01:02:49;11.60;75.80
31731;DHT22;18310;55.586;12.286;2022-11-25T01:05:53;11.60;75.70
31731;DHT22;18310;55.586;12.286;2022-11-25T01:08:56;11.60;75.80
31731;DHT22;18310;55.586;12.286;2022-11-25T01:11:59;11.60;75.80
31731;DHT22;18310;55.586;12.286;2022-11-25T01:15:03;11.50;75.90
31731;DHT22;18310;55.586;12.286;2022-11-25T01:18:07;11.50;76.00
31731;DHT22;18310;55.586;12.286;2022-11-25T01:21:14;11.50;76.00
31731;DHT22;18310;55.586;12.286;2022-11-25T01:24:19;11.50;76.60
31731;DHT22;18310;55.586;12.286;2022-11-25T01:27:24;11.50;75.90
31731;DHT22;18310;55.586;12.286;2022-11-25T01:30:27;11.50;75.90
31731;DHT22;18310;55.586;12.286;2022-11-25T01:33:31;11.50;75.90
31731;DHT22;18310;55.586;12.286;2022-11-25T01:36:36;11.50;76.00
31731;DHT22;18310;55.586;12.286;2022-11-25T01:39:39;11.40;76.00
31731;DHT22;18310;55.586;12.286;2022-11-25T01:42:43;11.40;75.70
31731;DHT22;18310;55.586;12.286;2022-11-25T01:45:48;11.50;75.70
31731;DHT22;18310;55.586;12.286;2022-11-25T01:48:53;11.40;76.30
31731;DHT22;18310;55.586;12.286;2022-11-25T01:52:05;11.30;75.90
31731;DHT22;18310;55.586;12.286;2022-11-25T01:55:16;11.30;76.00
31731;DHT22;18310;55.586;12.286;2022-11-25T01:58:26;11.30;76.10
31731;DHT22;18310;55.586;12.286;2022-11-25T02:01:32;11.30;76.20
31731;DHT22;18310;55.586;12.286;2022-11-25T02:04:37;11.30;76.10
31731;DHT22;18310;55.586;12.286;2022-11-25T02:07:44;11.20;76.20
31731;DHT22;18310;55.586;12.286;2022-11-25T02:10:51;11.30;76.40
31731;DHT22;18310;55.586;12.286;2022-11-25T02:13:58;11.30;76.30
31731;DHT22;18310;55.586;12.286;2022-11-25T02:17:02;10.40;76.10
31731;DHT22;18310;55.586;12.286;2022-11-25T02:20:07;11.30;76.40
31731;DHT22;18310;55.586;12.286;2022-11-25T02:23:18;11.30;76.30
31731;DHT22;18310;55.586;12.286;2022-11-25T02:26:30;11.30;76.30
31731;DHT22;18310;55.586;12.286;2022-11-25T02:29:33;11.30;76.40
31731;DHT22;18310;55.586;12.286;2022-11-25T02:32:42;11.30;76.40
31731;DHT22;18310;55.586;12.286;2022-11-25T02:35:47;11.30;76.40
31731;DHT22;18310;55.586;12.286;2022-11-25T02:38:55;11.30;76.20
31731;DHT22;18310;55.586;12.286;2022-11-25T02:42:02;11.20;76.10
31731;DHT22;18310;55.586;12.286;2022-11-25T02:45:08;11.20;76.10
31731;DHT22;18310;55.586;12.286;2022-11-25T02:48:17;12.00;76.50
31731;DHT22;18310;55.586;12.286;2022-11-25T02:51:22;11.20;76.00
31731;DHT22;18310;55.586;12.286;2022-11-25T02:54:27;11.10;75.90
31731;DHT22;18310;55.586;12.286;2022-11-25T02:57:31;10.90;75.60
31731;DHT22;18310;55.586;12.286;2022-11-25T03:00:34;11.00;76.00
31731;DHT22;18310;55.586;12.286;2022-11-25T03:03:39;11.00;76.10
31731;DHT22;18310;55.586;12.286;2022-11-25T03:06:42;11.00;76.30
31731;DHT22;18310;55.586;12.286;2022-11-25T03:09:46;10.90;76.20
31731;DHT22;18310;55.586;12.286;2022-11-25T03:12:50;11.00;76.30
31731;DHT22;18310;55.586;12.286;2022-11-25T03:15:53;10.90;76.40
31731;DHT22;18310;55.586;12.286;2022-11-25T03:18:56;10.90;76.50
31731;DHT22;18310;55.586;12.286;2022-11-25T03:21:59;11.00;76.70
31731;DHT22;18310;55.586;12.286;2022-11-25T03:25:03;10.90;76.70
31731;DHT22;18310;55.586;12.286;2022-11-25T03:28:08;10.90;76.80
31731;DHT22;18310;55.586;12.286;2022-11-25T03:31:11;11.00;77.50
31731;DHT22;18310;55.586;12.286;2022-11-25T03:34:14;10.90;76.70
31731;DHT22;18310;55.586;12.286;2022-11-25T03:37:17;11.50;77.10
31731;DHT22;18310;55.586;12.286;2022-11-25T03:40:21;10.90;77.40
31731;DHT22;18310;55.586;12.286;2022-11-25T03:43:26;10.70;76.80
31731;DHT22;18310;55.586;12.286;2022-11-25T03:46:29;11.00;77.10
31731;DHT22;18310;55.586;12.286;2022-11-25T03:49:32;11.00;77.10
31731;DHT22;18310;55.586;12.286;2022-11-25T03:52:35;11.00;77.20
31731;DHT22;18310;55.586;12.286;2022-11-25T03:55:39;10.90;77.20
31731;DHT22;18310;55.586;12.286;2022-11-25T03:58:44;10.90;77.20
31731;DHT22;18310;55.586;12.286;2022-11-25T04:01:48;10.90;77.20
31731;DHT22;18310;55.586;12.286;2022-11-25T04:04:51;11.00;77.20
31731;DHT22;18310;55.586;12.286;2022-11-25T04:07:55;11.00;77.30
31731;DHT22;18310;55.586;12.286;2022-11-25T04:10:59;11.20;77.30
31731;DHT22;18310;55.586;12.286;2022-11-25T04:14:03;11.00;77.20
31731;DHT22;18310;55.586;12.286;2022-11-25T04:17:06;11.00;77.20
31731;DHT22;18310;55.586;12.286;2022-11-25T04:20:11;11.10;77.10
31731;DHT22;18310;55.586;12.286;2022-11-25T04:23:15;11.10;77.10
31731;DHT22;18310;55.586;12.286;2022-11-25T04:26:18;11.10;77.10
31731;DHT22;18310;55.586;12.286;2022-11-25T04:29:23;11.10;77.00
31731;DHT22;18310;55.586;12.286;2022-11-25T04:32:26;11.10;77.00
31731;DHT22;18310;55.586;12.286;2022-11-25T04:35:29;11.00;76.90
31731;DHT22;18310;55.586;12.286;2022-11-25T04:38:32;11.10;77.00
31731;DHT22;18310;55.586;12.286;2022-11-25T04:41:35;11.30;77.10
31731;DHT22;18310;55.586;12.286;2022-11-25T04:44:39;10.90;76.80
31731;DHT22;18310;55.586;12.286;2022-11-25T04:47:43;11.00;76.80
31731;DHT22;18310;55.586;12.286;2022-11-25T04:50:47;11.10;76.90
31731;DHT22;18310;55.586;12.286;2022-11-25T04:53:50;10.90;76.80
31731;DHT22;18310;55.586;12.286;2022-11-25T04:56:53;11.00;76.80
31731;DHT22;18310;55.586;12.286;2022-11-25T04:59:57;11.00;76.80
31731;DHT22;18310;55.586;12.286;2022-11-25T05:03:01;11.10;76.90
31731;DHT22;18310;55.586;12.286;2022-11-25T05:06:05;11.10;76.90
31731;DHT22;18310;55.586;12.286;2022-11-25T05:09:08;11.10;76.90
31731;DHT22;18310;55.586;12.286;2022-11-25T05:12:13;11.10;76.90
31731;DHT22;18310;55.586;12.286;2022-11-25T05:15:19;11.10;77.00
31731;DHT22;18310;55.586;12.286;2022-11-25T05:18:22;12.30;77.60
31731;DHT22;18310;55.586;12.286;2022-11-25T05:21:25;11.10;76.90
31731;DHT22;18310;55.586;12.286;2022-11-25T05:24:29;11.10;77.00
31731;DHT22;18310;55.586;12.286;2022-11-25T05:27:32;11.20;77.00
31731;DHT22;18310;55.586;12.286;2022-11-25T05:30:36;11.20;76.90
31731;DHT22;18310;55.586;12.286;2022-11-25T05:33:40;11.20;76.90
31731;DHT22;18310;55.586;12.286;2022-11-25T05:36:43;11.20;76.90
31731;DHT22;18310;55.586;12.286;2022-11-25T05:39:46;11.20;76.90
31731;DHT22;18310;55.586;12.286;2022-11-25T05:42:49;11.20;76.90
31731;DHT22;18310;55.586;12.286;2022-11-25T05:45:53;11.20;76.80
31731;DHT22;18310;55.586;12.286;2022-11-25T05:48:56;11.20;76.80
31731;DHT22;18310;55.586;12.286;2022-11-25T05:51:59;11.10;77.20
31731;DHT22;18310;55.586;12.286;2022-11-25T05:55:03;11.20;76.70
31731;DHT22;18310;55.586;12.286;2022-11-25T05:58:07;11.10;76.60
31731;DHT22;18310;55.586;12.286;2022-11-25T06:01:14;11.20;76.60
31731;DHT22;18310;55.586;12.286;2022-11-25T06:04:17;11.10;76.50
31731;DHT22;18310;55.586;12.286;2022-11-25T06:07:21;11.10;76.60
31731;DHT22;18310;55.586;12.286;2022-11-25T06:10:24;10.60;76.50
31731;DHT22;18310;55.586;12.286;2022-11-25T06:13:27;11.20;76.70
31731;DHT22;18310;55.586;12.286;2022-11-25T06:16:31;11.20;76.70
31731;DHT22;18310;55.586;12.286;2022-11-25T06:19:34;11.20;76.60
31731;DHT22;18310;55.586;12.286;2022-11-25T06:22:37;11.20;76.60
31731;DHT22;18310;55.586;12.286;2022-11-25T06:25:40;11.20;76.40
31731;DHT22;18310;55.586;12.286;2022-11-25T06:28:43;11.70;76.50
31731;DHT22;18310;55.586;12.286;2022-11-25T06:31:49;11.40;76.20
31731;DHT22;18310;55.586;12.286;2022-11-25T06:34:52;11.20;76.00
31731;DHT22;18310;55.586;12.286;2022-11-25T06:37:57;11.20;75.90
31731;DHT22;18310;55.586;12.286;2022-11-25T06:41:00;10.20;75.40
31731;DHT22;18310;55.586;12.286;2022-11-25T06:44:03;11.20;76.00
31731;DHT22;18310;55.586;12.286;2022-11-25T06:47:08;11.20;76.10
31731;DHT22;18310;55.586;12.286;2022-11-25T06:50:11;11.20;76.10
31731;DHT22;18310;55.586;12.286;2022-11-25T06:53:14;11.20;76.10
31731;DHT22;18310;55.586;12.286;2022-11-25T06:56:26;11.20;76.20
31731;DHT22;18310;55.586;12.286;2022-11-25T06:59:29;11.20;76.10
31731;DHT22;18310;55.586;12.286;2022-11-25T07:02:35;11.20;76.20
31731;DHT22;18310;55.586;12.286;2022-11-25T07:05:44;11.20;76.10
31731;DHT22;18310;55.586;12.286;2022-11-25T07:08:47;11.20;76.10
31731;DHT22;18310;55.586;12.286;2022-11-25T07:11:51;11.20;76.10
31731;DHT22;18310;55.586;12.286;2022-11-25T07:14:54;11.20;76.00
31731;DHT22;18310;55.586;12.286;2022-11-25T07:17:59;11.40;76.00
31731;DHT22;18310;55.586;12.286;2022-11-25T07:21:03;11.20;75.80
31731;DHT22;18310;55.586;12.286;2022-11-25T07:24:10;11.20;75.80
31731;DHT22;18310;55.586;12.286;2022-11-25T07:27:14;11.20;75.80
31731;DHT22;18310;55.586;12.286;2022-11-25T07:30:17;11.10;75.80
31731;DHT22;18310;55.586;12.286;2022-11-25T07:33:42;11.10;75.80
31731;DHT22;18310;55.586;12.286;2022-11-25T07:36:46;11.10;75.80
31731;DHT22;18310;55.586;12.286;2022-11-25T07:39:51;11.10;75.80
31731;DHT22;18310;55.586;12.286;2022-11-25T07:42:54;11.10;75.90
31731;DHT22;18310;55.586;12.286;2022-11-25T07:46:08;11.10;75.80
31731;DHT22;18310;55.586;12.286;2022-11-25T07:49:15;11.10;75.50
31731;DHT22;18310;55.586;12.286;2022-11-25T07:52:20;11.10;75.60
31731;DHT22;18310;55.586;12.286;2022-11-25T07:55:24;11.10;75.40
31731;DHT22;18310;55.586;12.286;2022-11-25T07:58:27;11.10;75.30
31731;DHT22;18310;55.586;12.286;2022-11-25T08:01:30;10.50;74.90
31731;DHT22;18310;55.586;12.286;2022-11-25T08:04:35;10.10;75.10
31731;DHT22;18310;55.586;12.286;2022-11-25T08:07:38;11.10;75.20
31731;DHT22;18310;55.586;12.286;2022-11-25T08:10:42;10.70;75.10
31731;DHT22;18310;55.586;12.286;2022-11-25T08:13:45;11.00;75.50
31731;DHT22;18310;55.586;12.286;2022-11-25T08:16:49;11.00;75.60
31731;DHT22;18310;55.586;12.286;2022-11-25T08:19:53;11.10;75.60
31731;DHT22;18310;55.586;12.286;2022-11-25T08:22:56;11.00;75.50
31731;DHT22;18310;55.586;12.286;2022-11-25T08:26:02;11.10;75.60
31731;DHT22;18310;55.586;12.286;2022-11-25T08:29:06;11.10;75.60
31731;DHT22;18310;55.586;12.286;2022-11-25T08:32:09;11.10;75.80
31731;DHT22;18310;55.586;12.286;2022-11-25T08:35:14;11.10;75.40
31731;DHT22;18310;55.586;12.286;2022-11-25T08:38:17;11.60;75.60
31731;DHT22;18310;55.586;12.286;2022-11-25T08:41:22;10.40;74.90
31731;DHT22;18310;55.586;12.286;2022-11-25T08:44:27;11.20;75.40
31731;DHT22;18310;55.586;12.286;2022-11-25T08:47:31;11.20;75.40
31731;DHT22;18310;55.586;12.286;2022-11-25T08:50:36;11.20;75.40
31731;DHT22;18310;55.586;12.286;2022-11-25T08:53:41;11.30;75.40
31731;DHT22;18310;55.586;12.286;2022-11-25T08:56:45;11.30;75.40
31731;DHT22;18310;55.586;12.286;2022-11-25T08:59:49;11.20;75.10
31731;DHT22;18310;55.586;12.286;2022-11-25T09:02:52;11.30;75.10
31731;DHT22;18310;55.586;12.286;2022-11-25T09:05:57;11.30;75.00
31731;DHT22;18310;55.586;12.286;2022-11-25T09:09:01;11.30;75.00
31731;DHT22;18310;55.586;12.286;2022-11-25T09:12:06;11.30;74.90
31731;DHT22;18310;55.586;12.286;2022-11-25T09:15:10;11.30;74.90
31731;DHT22;18310;55.586;12.286;2022-11-25T09:18:14;11.30;74.80
31731;DHT22;18310;55.586;12.286;2022-11-25T09:21:20;11.30;74.90
31731;DHT22;18310;55.586;12.286;2022-11-25T09:24:26;12.20;75.40
31731;DHT22;18310;55.586;12.286;2022-11-25T09:27:29;11.30;74.90
31731;DHT22;18310;55.586;12.286;2022-11-25T09:30:32;11.20;75.30
31731;DHT22;18310;55.586;12.286;2022-11-25T09:33:36;11.20;74.80
31731;DHT22;18310;55.586;12.286;2022-11-25T09:36:44;11.30;74.90
31731;DHT22;18310;55.586;12.286;2022-11-25T09:39:47;11.30;74.80
31731;DHT22;18310;55.586;12.286;2022-11-25T09:42:57;11.30;74.90
31731;DHT22;18310;55.586;12.286;2022-11-25T09:46:44;11.20;74.70
31731;DHT22;18310;55.586;12.286;2022-11-25T09:50:09;11.30;75.30
31731;DHT22;18310;55.586;12.286;2022-11-25T09:53:29;11.20;74.70
31731;DHT22;18310;55.586;12.286;2022-11-25T09:56:47;11.20;74.80
31731;DHT22;18310;55.586;12.286;2022-11-25T10:00:05;11.20;74.80
31731;DHT22;18310;55.586;12.286;2022-11-25T10:03:18;11.20;74.90
31731;DHT22;18310;55.586;12.286;2022-11-25T10:06:31;11.10;75.00
31731;DHT22;18310;55.586;12.286;2022-11-25T10:09:43;10.70;74.80
31731;DHT22;18310;55.586;12.286;2022-11-25T10:12:48;11.10;75.20
31731;DHT22;18310;55.586;12.286;2022-11-25T10:15:53;11.10;75.20
31731;DHT22;18310;55.586;12.286;2022-11-25T10:19:05;11.10;75.40
31731;DHT22;18310;55.586;12.286;2022-11-25T10:22:23;11.10;75.50
31731;DHT22;18310;55.586;12.286;2022-11-25T10:25:30;11.10;75.60
31731;DHT22;18310;55.586;12.286;2022-11-25T10:28:40;11.10;75.60
31731;DHT22;18310;55.586;12.286;2022-11-25T10:31:50;11.10;76.10
31731;DHT22;18310;55.586;12.286;2022-11-25T10:35:05;11.10;75.60
31731;DHT22;18310;55.586;12.286;2022-11-25T10:38:22;11.10;75.70
31731;DHT22;18310;55.586;12.286;2022-11-25T10:41:38;11.10;75.60
31731;DHT22;18310;55.586;12.286;2022-11-25T10:44:47;11.10;75.60
31731;DHT22;18310;55.586;12.286;2022-11-25T10:48:12;11.20;75.70
31731;DHT22;18310;55.586;12.286;2022-11-25T10:51:35;11.10;75.80
31731;DHT22;18310;55.586;12.286;2022-11-25T10:54:41;11.10;75.60
31731;DHT22;18310;55.586;12.286;2022-11-25T10:58:19;11.10;75.50
31731;DHT22;18310;55.586;12.286;2022-11-25T11:01:29;11.20;75.70
31731;DHT22;18310;55.586;12.286;2022-11-25T11:04:33;11.10;75.60
31731;DHT22;18310;55.586;12.286;2022-11-25T11:07:40;11.10;75.60
31731;DHT22;18310;55.586;12.286;2022-11-25T11:10:47;11.10;75.60
31731;DHT22;18310;55.586;12.286;2022-11-25T11:14:16;12.00;76.20
31731;DHT22;18310;55.586;12.286;2022-11-25T11:17:31;11.60;76.10
31731;DHT22;18310;55.586;12.286;2022-11-25T11:20:45;11.10;75.80
31731;DHT22;18310;55.586;12.286;2022-11-25T11:23:51;10.40;75.40
31731;DHT22;18310;55.586;12.286;2022-11-25T11:27:03;11.90;76.20
31731;DHT22;18310;55.586;12.286;2022-11-25T11:30:14;11.20;75.90
31731;DHT22;18310;55.586;12.286;2022-11-25T11:33:29;11.20;75.70
31731;DHT22;18310;55.586;12.286;2022-11-25T11:36:51;11.20;75.60
31731;DHT22;18310;55.586;12.286;2022-11-25T11:40:30;11.20;75.60
31731;DHT22;18310;55.586;12.286;2022-11-25T11:43:58;11.30;75.70
31731;DHT22;18310;55.586;12.286;2022-11-25T11:47:18;11.20;75.60
31731;DHT22;18310;55.586;12.286;2022-11-25T11:50:29;11.20;75.60
31731;DHT22;18310;55.586;12.286;2022-11-25T11:53:41;11.20;75.60
31731;DHT22;18310;55.586;12.286;2022-11-25T11:56:55;11.20;75.60
31731;DHT22;18310;55.586;12.286;2022-11-25T12:00:03;10.90;75.40
31731;DHT22;18310;55.586;12.286;2022-11-25T12:03:19;11.20;75.60
31731;DHT22;18310;55.586;12.286;2022-11-25T12:06:28;11.10;75.40
31731;DHT22;18310;55.586;12.286;2022-11-25T12:09:41;11.10;75.50
31731;DHT22;18310;55.586;12.286;2022-11-25T12:13:02;11.10;75.60
31731;DHT22;18310;55.586;12.286;2022-11-25T12:16:22;11.10;75.40
31731;DHT22;18310;55.586;12.286;2022-11-25T12:19:40;11.10;75.40
31731;DHT22;18310;55.586;12.286;2022-11-25T12:22:59;11.10;75.40
31731;DHT22;18310;55.586;12.286;2022-11-25T12:26:18;11.20;75.60
31731;DHT22;18310;55.586;12.286;2022-11-25T12:29:32;11.10;75.50
31731;DHT22;18310;55.586;12.286;2022-11-25T12:32:57;11.10;75.50
31731;DHT22;18310;55.586;12.286;2022-11-25T12:36:17;11.20;75.50
31731;DHT22;18310;55.586;12.286;2022-11-25T12:39:33;11.20;75.60
31731;DHT22;18310;55.586;12.286;2022-11-25T12:42:48;10.30;75.00
31731;DHT22;18310;55.586;12.286;2022-11-25T12:46:04;10.40;75.00
31731;DHT22;18310;55.586;12.286;2022-11-25T12:49:24;11.20;75.30
31731;DHT22;18310;55.586;12.286;2022-11-25T12:52:42;11.20;75.20
31731;DHT22;18310;55.586;12.286;2022-11-25T12:56:00;11.20;75.20
31731;DHT22;18310;55.586;12.286;2022-11-25T12:59:32;11.20;75.20
31731;DHT22;18310;55.586;12.286;2022-11-25T13:03:30;11.10;75.00
31731;DHT22;18310;55.586;12.286;2022-11-25T13:07:28;11.10;75.10
31731;DHT22;18310;55.586;12.286;2022-11-25T13:11:02;11.10;75.20
31731;DHT22;18310;55.586;12.286;2022-11-25T13:14:27;11.10;75.40
31731;DHT22;18310;55.586;12.286;2022-11-25T13:17:49;11.10;75.40
31731;DHT22;18310;55.586;12.286;2022-11-25T13:21:06;11.30;75.60
31731;DHT22;18310;55.586;12.286;2022-11-25T13:24:26;11.10;75.30
31731;DHT22;18310;55.586;12.286;2022-11-25T13:27:58;11.10;75.10
31731;DHT22;18310;55.586;12.286;2022-11-25T13:31:18;11.10;74.90
31731;DHT22;18310;55.586;12.286;2022-11-25T13:34:27;11.10;75.00
31731;DHT22;18310;55.586;12.286;2022-11-25T13:37:39;11.20;75.10
31731;DHT22;18310;55.586;12.286;2022-11-25T13:40:55;11.10;75.10
31731;DHT22;18310;55.586;12.286;2022-11-25T13:44:20;11.30;75.10
31731;DHT22;18310;55.586;12.286;2022-11-25T13:47:37;11.10;75.00
31731;DHT22;18310;55.586;12.286;2022-11-25T13:50:51;11.20;75.10
31731;DHT22;18310;55.586;12.286;2022-11-25T13:54:24;11.20;75.50
31731;DHT22;18310;55.586;12.286;2022-11-25T13:57:42;11.20;74.90
31731;DHT22;18310;55.586;12.286;2022-11-25T14:01:10;11.20;75.00
31731;DHT22;18310;55.586;12.286;2022-11-25T14:04:39;11.10;74.80
31731;DHT22;18310;55.586;12.286;2022-11-25T14:08:06;11.10;74.70
31731;DHT22;18310;55.586;12.286;2022-11-25T14:11:31;11.10;74.70
31731;DHT22;18310;55.586;12.286;2022-11-25T14:15:11;11.10;74.70
31731;DHT22;18310;55.586;12.286;2022-11-25T14:18:52;11.00;74.80
31731;DHT22;18310;55.586;12.286;2022-11-25T14:22:38;10.80;74.70
31731;DHT22;18310;55.586;12.286;2022-11-25T14:26:10;11.00;74.80
31731;DHT22;18310;55.586;12.286;2022-11-25T14:29:51;11.00;74.90
31731;DHT22;18310;55.586;12.286;2022-11-25T14:33:07;11.00;74.90
31731;DHT22;18310;55.586;12.286;2022-11-25T14:36:26;11.00;75.10
31731;DHT22;18310;55.586;12.286;2022-11-25T14:39:36;11.80;75.60
31731;DHT22;18310;55.586;12.286;2022-11-25T14:42:53;11.00;75.20
31731;DHT22;18310;55.586;12.286;2022-11-25T14:46:10;11.80;75.60
31731;DHT22;18310;55.586;12.286;2022-11-25T14:49:22;10.70;74.80
31731;DHT22;18310;55.586;12.286;2022-11-25T14:52:47;11.00;74.90
31731;DHT22;18310;55.586;12.286;2022-11-25T14:56:00;11.00;74.80
31731;DHT22;18310;55.586;12.286;2022-11-25T14:59:03;11.50;75.10
31731;DHT22;18310;55.586;12.286;2022-11-25T15:02:29;11.10;74.90
31731;DHT22;18310;55.586;12.286;2022-11-25T15:05:42;11.10;74.60
31731;DHT22;18310;55.586;12.286;2022-11-25T15:08:54;11.00;74.70
31731;DHT22;18310;55.586;12.286;2022-11-25T15:12:19;11.00;74.50
31731;DHT22;18310;55.586;12.286;2022-11-25T15:16:11;11.00;74.50
31731;DHT22;18310;55.586;12.286;2022-11-25T15:20:03;11.00;74.60
31731;DHT22;18310;55.586;12.286;2022-11-25T15:23:28;11.00;74.50
31731;DHT22;18310;55.586;12.286;2022-11-25T15:27:17;11.00;74.40
31731;DHT22;18310;55.586;12.286;2022-11-25T15:31:07;11.00;74.30
31731;DHT22;18310;55.586;12.286;2022-11-25T15:35:15;10.90;74.10
31731;DHT22;18310;55.586;12.286;2022-11-25T15:38:36;10.90;74.10
31731;DHT22;18310;55.586;12.286;2022-11-25T15:41:49;10.90;74.10
31731;DHT22;18310;55.586;12.286;2022-11-25T15:44:57;10.80;74.00
31731;DHT22;18310;55.586;12.286;2022-11-25T15:48:15;10.80;74.10
31731;DHT22;18310;55.586;12.286;2022-11-25T15:51:34;10.80;74.10
31731;DHT22;18310;55.586;12.286;2022-11-25T15:54:48;10.70;74.00
31731;DHT22;18310;55.586;12.286;2022-11-25T15:58:04;10.80;74.10
31731;DHT22;18310;55.586;12.286;2022-11-25T16:01:22;10.70;74.00
31731;DHT22;18310;55.586;12.286;2022-11-25T16:04:32;10.70;74.00
31731;DHT22;18310;55.586;12.286;2022-11-25T16:07:56;10.70;74.10
31731;DHT22;18310;55.586;12.286;2022-11-25T16:11:25;10.80;73.90
31731;DHT22;18310;55.586;12.286;2022-11-25T16:14:37;10.80;74.20
31731;DHT22;18310;55.586;12.286;2022-11-25T16:17:47;10.80;74.10
31731;DHT22;18310;55.586;12.286;2022-11-25T16:20:50;10.70;73.90
31731;DHT22;18310;55.586;12.286;2022-11-25T16:24:12;10.80;73.80
31731;DHT22;18310;55.586;12.286;2022-11-25T16:27:25;10.70;73.60
31731;DHT22;18310;55.586;12.286;2022-11-25T16:30:35;10.70;73.70
31731;DHT22;18310;55.586;12.286;2022-11-25T16:33:46;10.70;73.90
31731;DHT22;18310;55.586;12.286;2022-11-25T16:36:56;10.70;73.90
31731;DHT22;18310;55.586;12.286;2022-11-25T16:40:07;10.60;73.90
31731;DHT22;18310;55.586;12.286;2022-11-25T16:43:17;10.70;73.90
31731;DHT22;18310;55.586;12.286;2022-11-25T16:46:30;10.70;73.80
31731;DHT22;18310;55.586;12.286;2022-11-25T16:49:35;10.70;73.80
31731;DHT22;18310;55.586;12.286;2022-11-25T16:52:44;10.70;73.60
31731;DHT22;18310;55.586;12.286;2022-11-25T16:55:47;10.70;73.70
31731;DHT22;18310;55.586;12.286;2022-11-25T16:58:57;10.60;73.70
31731;DHT22;18310;55.586;12.286;2022-11-25T17:02:13;10.60;73.70
31731;DHT22;18310;55.586;12.286;2022-11-25T17:05:26;10.60;73.60
31731;DHT22;18310;55.586;12.286;2022-11-25T17:08:43;10.60;73.70
31731;DHT22;18310;55.586;12.286;2022-11-25T17:11:49;10.60;73.70
31731;DHT22;18310;55.586;12.286;2022-11-25T17:15:02;10.60;73.70
31731;DHT22;18310;55.586;12.286;2022-11-25T17:18:15;10.60;73.70
31731;DHT22;18310;55.586;12.286;2022-11-25T17:21:21;10.60;73.60
31731;DHT22;18310;55.586;12.286;2022-11-25T17:24:34;10.60;73.70
31731;DHT22;18310;55.586;12.286;2022-11-25T17:27:38;10.60;73.70
31731;DHT22;18310;55.586;12.286;2022-11-25T17:30:48;10.60;73.70
31731;DHT22;18310;55.586;12.286;2022-11-25T17:33:57;10.60;73.70
31731;DHT22;18310;55.586;12.286;2022-11-25T17:37:12;10.70;73.70
31731;DHT22;18310;55.586;12.286;2022-11-25T17:40:17;10.70;73.70
31731;DHT22;18310;55.586;12.286;2022-11-25T17:43:26;10.60;73.40
31731;DHT22;18310;55.586;12.286;2022-11-25T17:46:35;10.60;73.60
31731;DHT22;18310;55.586;12.286;2022-11-25T17:49:44;10.60;73.70
31731;DHT22;18310;55.586;12.286;2022-11-25T17:53:02;10.60;73.80
31731;DHT22;18310;55.586;12.286;2022-11-25T17:56:16;10.60;73.80
31731;DHT22;18310;55.586;12.286;2022-11-25T17:59:33;10.60;74.20
31731;DHT22;18310;55.586;12.286;2022-11-25T18:02:36;10.70;73.70
31731;DHT22;18310;55.586;12.286;2022-11-25T18:05:46;10.70;73.60
31731;DHT22;18310;55.586;12.286;2022-11-25T18:08:57;10.60;73.70
31731;DHT22;18310;55.586;12.286;2022-11-25T18:12:00;10.70;73.60
31731;DHT22;18310;55.586;12.286;2022-11-25T18:15:17;10.70;73.30
31731;DHT22;18310;55.586;12.286;2022-11-25T18:18:28;10.70;73.50
31731;DHT22;18310;55.586;12.286;2022-11-25T18:21:30;10.70;73.60
31731;DHT22;18310;55.586;12.286;2022-11-25T18:24:41;10.70;73.60
31731;DHT22;18310;55.586;12.286;2022-11-25T18:27:45;10.70;73.70
31731;DHT22;18310;55.586;12.286;2022-11-25T18:30:58;10.70;73.90
31731;DHT22;18310;55.586;12.286;2022-11-25T18:34:13;10.70;74.10
31731;DHT22;18310;55.586;12.286;2022-11-25T18:37:16;10.70;74.10
31731;DHT22;18310;55.586;12.286;2022-11-25T18:40:28;10.70;74.20
31731;DHT22;18310;55.586;12.286;2022-11-25T18:43:38;10.70;74.30
31731;DHT22;18310;55.586;12.286;2022-11-25T18:46:47;10.70;74.20
31731;DHT22;18310;55.586;12.286;2022-11-25T18:49:50;10.70;74.20
31731;DHT22;18310;55.586;12.286;2022-11-25T18:53:00;10.70;74.20
31731;DHT22;18310;55.586;12.286;2022-11-25T18:56:12;10.70;74.20
31731;DHT22;18310;55.586;12.286;2022-11-25T18:59:27;10.70;74.20
31731;DHT22;18310;55.586;12.286;2022-11-25T19:02:33;10.70;74.30
31731;DHT22;18310;55.586;12.286;2022-11-25T19:05:43;10.70;74.10
31731;DHT22;18310;55.586;12.286;2022-11-25T19:08:46;10.70;74.10
31731;DHT22;18310;55.586;12.286;2022-11-25T19:11:57;10.70;74.00
31731;DHT22;18310;55.586;12.286;2022-11-25T19:15:10;10.60;73.80
31731;DHT22;18310;55.586;12.286;2022-11-25T19:18:20;10.70;73.90
31731;DHT22;18310;55.586;12.286;2022-11-25T19:21:32;10.60;73.80
31731;DHT22;18310;55.586;12.286;2022-11-25T19:24:42;10.60;73.90
31731;DHT22;18310;55.586;12.286;2022-11-25T19:27:47;10.60;73.80
31731;DHT22;18310;55.586;12.286;2022-11-25T19:31:00;10.50;73.70
31731;DHT22;18310;55.586;12.286;2022-11-25T19:34:05;10.50;73.80
31731;DHT22;18310;55.586;12.286;2022-11-25T19:37:16;10.50;73.90
31731;DHT22;18310;55.586;12.286;2022-11-25T19:40:27;10.40;73.90
31731;DHT22;18310;55.586;12.286;2022-11-25T19:43:39;10.50;74.00